createdAt,value
2023-03-29T00:03:33.958Z,6.60
2023-03-29T00:08:25.779Z,6.70
2023-03-29T00:13:18.196Z,6.70
2023-03-29T00:18:09.927Z,6.70
2023-03-29T00:23:01.604Z,6.80
2023-03-29T00:27:53.313Z,6.80
2023-03-29T00:32:45.847Z,6.80
2023-03-29T00:37:37.982Z,6.80
2023-03-29T00:42:30.622Z,6.80
2023-03-29T00:47:27.834Z,6.80
2023-03-29T00:52:22.554Z,6.90
2023-03-29T00:57:18.916Z,6.90
2023-03-29T01:02:11.238Z,6.90
2023-03-29T01:07:49.302Z,7.00
2023-03-29T01:12:47.838Z,7.10
2023-03-29T01:17:43.266Z,7.10
2023-03-29T01:23:13.881Z,7.20
2023-03-29T01:28:14.908Z,7.00
2023-03-29T01:33:14.525Z,7.00
2023-03-29T01:38:13.303Z,7.00
2023-03-29T01:43:34.204Z,7.00
2023-03-29T01:48:35.242Z,7.10
2023-03-29T01:53:35.996Z,7.10
2023-03-29T01:58:35.913Z,7.10
2023-03-29T02:03:31.173Z,7.00
2023-03-29T02:08:24.534Z,7.00
2023-03-29T02:13:17.931Z,7.00
2023-03-29T02:18:09.770Z,7.00
2023-03-29T02:23:14.245Z,7.00
2023-03-29T02:28:07.325Z,7.00
2023-03-29T02:33:13.895Z,7.00
2023-03-29T02:38:11.260Z,7.10
2023-03-29T02:43:04.871Z,7.20
2023-03-29T02:48:03.426Z,7.20
2023-03-29T02:53:05.471Z,7.20
2023-03-29T02:57:57.936Z,7.20
2023-03-29T03:02:50.860Z,7.30
2023-03-29T03:07:43.290Z,7.30
2023-03-29T03:12:35.012Z,7.20
2023-03-29T03:17:26.694Z,7.20
2023-03-29T03:22:18.409Z,7.10
2023-03-29T03:27:10.075Z,7.10
2023-03-29T03:32:02.057Z,7.00
2023-03-29T03:36:54.543Z,7.00
2023-03-29T03:41:46.341Z,7.00
2023-03-29T03:46:38.107Z,7.00
2023-03-29T03:51:30.059Z,7.20
2023-03-29T03:56:21.773Z,7.20
2023-03-29T04:01:13.590Z,7.20
2023-03-29T04:11:13.760Z,7.20
2023-03-29T04:16:07.571Z,7.20
2023-03-29T04:20:59.527Z,7.30
2023-03-29T04:25:56.620Z,7.20
2023-03-29T04:30:48.881Z,7.20
2023-03-29T04:35:40.693Z,7.20
2023-03-29T04:40:33.529Z,7.10
2023-03-29T04:45:25.712Z,7.20
2023-03-29T04:50:17.745Z,7.30
2023-03-29T05:00:22.131Z,7.30
2023-03-29T05:05:14.247Z,7.30
2023-03-29T05:10:12.101Z,7.20
2023-03-29T05:15:05.527Z,7.30
2023-03-29T05:19:57.451Z,7.50
2023-03-29T05:24:50.386Z,7.40
2023-03-29T05:29:42.472Z,7.40
2023-03-29T05:34:34.128Z,7.40
2023-03-29T05:39:25.953Z,7.40
2023-03-29T05:44:17.710Z,7.40
2023-03-29T05:49:09.389Z,7.50
2023-03-29T05:54:01.822Z,7.70
2023-03-29T05:58:57.178Z,7.70
2023-03-29T06:03:49.256Z,7.80
2023-03-29T06:08:41.679Z,7.90
2023-03-29T06:13:34.389Z,7.90
2023-03-29T06:23:34.726Z,7.90
2023-03-29T06:28:27.141Z,8.00
2023-03-29T06:33:24.811Z,8.00
2023-03-29T06:38:17.134Z,8.10
2023-03-29T06:43:09.027Z,8.20
2023-03-29T06:48:02.236Z,8.20
2023-03-29T06:52:54.050Z,8.30
2023-03-29T06:57:45.719Z,8.50
2023-03-29T07:02:38.968Z,8.40
2023-03-29T07:07:43.957Z,8.40
2023-03-29T07:12:36.027Z,8.40
2023-03-29T07:17:35.701Z,8.50
2023-03-29T07:22:27.476Z,8.60
2023-03-29T07:27:21.394Z,8.80
2023-03-29T07:32:13.408Z,9.00
2023-03-29T07:37:06.417Z,9.30
2023-03-29T07:41:58.432Z,9.60
2023-03-29T07:46:50.088Z,9.80
2023-03-29T07:51:42.148Z,9.90
2023-03-29T07:56:35.987Z,10.10
2023-03-29T08:01:27.782Z,10.20
2023-03-29T08:06:19.491Z,10.50
2023-03-29T08:11:11.232Z,10.60
2023-03-29T08:16:03.345Z,10.60
2023-03-29T08:20:57.009Z,10.20
2023-03-29T08:26:01.307Z,10.30
2023-03-29T08:30:53.607Z,10.20
2023-03-29T08:35:45.616Z,10.10
2023-03-29T08:45:51.497Z,10.10
2023-03-29T09:06:22.331Z,10.80
2023-03-29T09:17:06.167Z,11.50
2023-03-29T09:22:08.446Z,11.80
2023-03-29T09:27:33.193Z,11.90
2023-03-29T09:32:37.858Z,12.00
2023-03-29T09:42:43.654Z,12.80
2023-03-29T09:47:59.479Z,13.20
2023-03-29T09:52:51.749Z,13.60
2023-03-29T09:57:44.557Z,14.10
2023-03-29T10:02:45.793Z,14.50
2023-03-29T10:07:54.496Z,14.70
2023-03-29T10:12:58.742Z,14.70
2023-03-29T10:18:06.838Z,14.80
2023-03-29T10:28:18.599Z,14.60
2023-03-29T10:33:33.537Z,14.80
2023-03-29T10:54:09.908Z,14.80
2023-03-29T10:59:27.156Z,15.00
2023-03-29T11:10:10.058Z,15.30
2023-03-29T11:15:23.088Z,15.40
2023-03-29T11:37:51.861Z,15.80
2023-03-29T11:42:50.882Z,15.80
2023-03-29T11:47:47.256Z,16.10
2023-03-29T11:53:29.628Z,16.40
2023-03-29T11:58:32.717Z,16.30
2023-03-29T12:09:39.582Z,16.20
2023-03-29T12:15:11.090Z,16.50
2023-03-29T12:20:29.492Z,16.70
2023-03-29T12:25:38.445Z,17.00
2023-03-29T12:31:05.775Z,17.10
2023-03-29T12:36:38.117Z,17.10
2023-03-29T12:41:37.794Z,17.20
2023-03-29T12:46:34.832Z,17.40
2023-03-29T12:51:33.311Z,17.50
2023-03-29T12:56:55.534Z,17.60
2023-03-29T13:02:35.667Z,17.80
2023-03-29T13:12:44.347Z,18.40
2023-03-29T13:17:56.928Z,18.30
2023-03-29T13:23:18.160Z,18.40
2023-03-29T13:28:34.744Z,18.80
2023-03-29T13:34:06.912Z,19.00
2023-03-29T13:39:07.759Z,19.10
2023-03-29T13:44:00.170Z,19.40
2023-03-29T13:49:01.002Z,19.50
2023-03-29T13:54:28.328Z,19.40
2023-03-29T13:59:31.898Z,19.40
2023-03-29T14:04:30.395Z,19.50
2023-03-29T14:09:30.075Z,19.20
2023-03-29T14:14:25.962Z,19.10
2023-03-29T14:19:31.902Z,19.10
2023-03-29T14:29:45.267Z,19.40
2023-03-29T14:39:47.762Z,19.10
2023-03-29T14:44:40.346Z,19.00
2023-03-29T14:49:34.021Z,18.90
2023-03-29T14:54:32.959Z,18.90
2023-03-29T14:59:54.851Z,18.90
2023-03-29T15:05:00.609Z,19.00
2023-03-29T15:09:57.386Z,19.20
2023-03-29T15:14:52.598Z,19.20
2023-03-29T15:19:44.607Z,19.10
2023-03-29T15:24:59.888Z,18.90
2023-03-29T15:30:03.932Z,18.80
2023-03-29T15:35:05.794Z,18.70
2023-03-29T15:39:58.101Z,18.60
2023-03-29T15:44:56.603Z,18.60
2023-03-29T15:54:54.058Z,18.50
2023-03-29T15:59:46.120Z,18.40
2023-03-29T16:04:37.804Z,18.30
2023-03-29T16:09:29.494Z,18.20
2023-03-29T16:14:27.916Z,18.00
2023-03-29T16:19:20.358Z,17.90
2023-03-29T16:24:20.009Z,17.80
2023-03-29T16:29:19.565Z,17.80
2023-03-29T16:34:19.809Z,17.80
2023-03-29T16:39:13.297Z,17.70
2023-03-29T16:44:05.367Z,17.70
2023-03-29T16:48:57.963Z,17.60
2023-03-29T16:53:51.323Z,17.40
2023-03-29T16:58:43.670Z,17.40
2023-03-29T17:08:50.465Z,17.20
2023-03-29T17:23:55.510Z,16.90
2023-03-29T17:28:48.246Z,16.80
2023-03-29T17:43:59.854Z,16.60
2023-03-29T17:48:51.894Z,16.40
2023-03-29T18:03:56.744Z,16.10
2023-03-29T18:08:48.458Z,16.10
2023-03-29T18:13:40.230Z,16.00
2023-03-29T18:18:33.253Z,16.00
2023-03-29T18:23:25.143Z,16.20
2023-03-29T18:28:18.362Z,16.20
2023-03-29T18:33:10.399Z,16.20
2023-03-29T18:38:03.197Z,16.20
2023-03-29T18:42:54.879Z,16.10
2023-03-29T18:47:46.748Z,16.00
2023-03-29T18:52:38.824Z,15.80
2023-03-29T18:57:30.751Z,15.80
2023-03-29T19:02:22.610Z,15.60
2023-03-29T19:07:14.405Z,15.20
2023-03-29T19:12:06.463Z,14.70
2023-03-29T19:16:58.124Z,14.50
2023-03-29T19:21:50.125Z,14.30
2023-03-29T19:26:48.081Z,14.00
2023-03-29T19:31:40.038Z,13.70
2023-03-29T19:36:32.180Z,13.60
2023-03-29T19:41:23.877Z,13.50
2023-03-29T19:46:15.823Z,13.40
2023-03-29T19:51:08.018Z,13.40
2023-03-29T19:56:01.918Z,13.50
2023-03-29T20:00:57.936Z,13.40
2023-03-29T20:05:50.784Z,13.50
2023-03-29T20:10:42.656Z,13.80
2023-03-29T20:15:34.908Z,13.90
2023-03-29T20:20:28.253Z,14.00
2023-03-29T20:25:21.125Z,14.10
2023-03-29T20:30:14.221Z,14.50
2023-03-29T20:35:06.518Z,14.50
2023-03-29T20:39:59.302Z,14.50
2023-03-29T20:44:53.750Z,14.60
2023-03-29T20:49:45.820Z,14.40
2023-03-29T20:54:38.614Z,14.50
2023-03-29T20:59:30.771Z,14.50
2023-03-29T21:04:23.160Z,14.40
2023-03-29T21:09:16.223Z,14.20
2023-03-29T21:14:09.083Z,14.10
2023-03-29T21:19:00.920Z,14.10
2023-03-29T21:23:52.598Z,14.00
2023-03-29T21:28:44.306Z,14.00
2023-03-29T21:33:36.130Z,14.00
2023-03-29T21:38:28.516Z,13.90
2023-03-29T21:43:20.952Z,13.90
2023-03-29T21:48:12.863Z,13.90
2023-03-29T21:53:04.555Z,14.00
2023-03-29T21:57:57.148Z,13.90
2023-03-29T22:07:58.593Z,13.90
2023-03-29T22:12:51.836Z,13.90
2023-03-29T22:17:43.561Z,13.70
2023-03-29T22:22:35.273Z,13.60
2023-03-29T22:27:26.950Z,13.50
2023-03-29T22:32:18.671Z,13.50
2023-03-29T22:37:10.601Z,13.50
2023-03-29T22:42:02.427Z,13.50
2023-03-29T22:52:01.274Z,13.30
2023-03-29T22:56:52.976Z,12.80
2023-03-29T23:06:50.510Z,12.50
2023-03-29T23:11:42.426Z,12.30
2023-03-29T23:21:40.746Z,12.10
2023-03-29T23:26:33.791Z,12.10
2023-03-29T23:31:25.564Z,12.00
2023-03-29T23:36:19.159Z,11.90
2023-03-29T23:41:12.723Z,11.80
2023-03-29T23:46:11.936Z,12.00
2023-03-29T23:51:05.294Z,11.90
2023-03-29T23:56:00.253Z,11.90
